Terminal Aerodrome Forecast
Issued by NWS North Platte, NE

Home | Current Version | Previous Version | Graphics & Text | Print | Product List | Glossary On
Versions: 1 2 3 4 5 6 7 8 9 10 11 12 13 14 15 16 17 18 19 20 21 22 23 24
000
FTUS43 KLBF 310600 AAA
TAFVTN
TAF AMD
KVTN 310658Z 3107/0106 20012KT P6SM SCT060 BKN110
      TEMPO 3107/3109 5SM -SHRA BKN060
     FM310900 23012KT P6SM SCT070
     FM311400 32010KT P6SM BKN100=

USA.gov is the U.S. government's official web portal to all federal, state and local government web resources and services.